Time;durP1;ratioP1;P1;durP2;ratioP2;P2;SDS_P1;SDS_P2;PMS_P1;PMS_P2;Temp;Humidity;BMP_temperature;BMP_pressure;BME280_temperature;BME280_humidity;BME280_pressure;Samples;Min_cycle;Max_cycle;Signal;HPM_P1;HPM_P2
2022/06/08 00:00:18;;;;;;;2.05;0.68;;;;;;;;;;4997900;28;20450;-78
2022/06/08 00:02:45;;;;;;;2.10;0.82;;;;;;;;;;5011188;28;20049;-78
2022/06/08 00:05:11;;;;;;;1.35;0.63;;;;;;;;;;5011344;28;20121;-77
2022/06/08 00:07:36;;;;;;;1.33;0.77;;;;;;;;;;5010885;28;20037;-77
2022/06/08 00:10:03;;;;;;;1.83;0.50;;;;;;;;;;5010821;28;20519;-78
2022/06/08 00:12:28;;;;;;;1.60;0.63;;;;;;;;;;5010623;28;20049;-78
2022/06/08 00:14:54;;;;;;;1.02;0.60;;;;;;;;;;4994722;28;20034;-78
2022/06/08 00:17:20;;;;;;;2.22;0.70;;;;;;;;;;5010819;28;20041;-78
2022/06/08 00:19:45;;;;;;;1.75;0.55;;;;;;;;;;4994439;28;20030;-78
2022/06/08 00:22:11;;;;;;;2.45;0.75;;;;;;;;;;5010829;28;20065;-77
2022/06/08 00:24:37;;;;;;;2.15;0.60;;;;;;;;;;4994520;28;20523;-77
2022/06/08 00:27:03;;;;;;;1.13;0.70;;;;;;;;;;4994278;28;20042;-77
2022/06/08 00:29:28;;;;;;;0.90;0.43;;;;;;;;;;4994197;28;20030;-77
2022/06/08 00:31:54;;;;;;;1.40;0.60;;;;;;;;;;4994606;28;20040;-78
2022/06/08 00:34:19;;;;;;;1.50;0.70;;;;;;;;;;4978243;28;20116;-78
2022/06/08 00:36:45;;;;;;;1.55;0.40;;;;;;;;;;5008774;28;20057;-77
2022/06/08 00:39:10;;;;;;;1.35;0.52;;;;;;;;;;5013811;28;20455;-77
2022/06/08 00:41:50;;;;;;;1.42;0.50;;;;;;;;;;5013586;28;20108;-77
2022/06/08 00:44:28;;;;;;;1.25;0.60;;;;;;;;;;4999283;28;20116;-78
2022/06/08 00:46:53;;;;;;;1.60;0.65;;;;;;;;;;4997384;28;20512;-78
2022/06/08 00:49:48;;;;;;;1.00;0.55;;;;;;;;;;4998610;28;20025;-78
2022/06/08 00:52:13;;;;;;;1.40;0.60;;;;;;;;;;5050298;28;20086;-78
2022/06/08 00:54:40;;;;;;;1.23;0.43;;;;;;;;;;5024282;28;20459;-78
2022/06/08 00:57:21;;;;;;;0.82;0.43;;;;;;;;;;4997290;28;20423;-77
2022/06/08 00:59:52;;;;;;;0.95;0.50;;;;;;;;;;5014493;28;20057;-78
2022/06/08 01:02:18;;;;;;;1.35;0.40;;;;;;;;;;5030025;28;20105;-78
2022/06/08 01:04:43;;;;;;;1.10;0.50;;;;;;;;;;5013959;28;20117;-77
2022/06/08 01:07:13;;;;;;;1.33;0.50;;;;;;;;;;5013812;28;20038;-78
2022/06/08 01:09:39;;;;;;;0.82;0.43;;;;;;;;;;5013909;28;20038;-78
2022/06/08 01:12:09;;;;;;;1.50;0.60;;;;;;;;;;5013470;28;20083;-78
2022/06/08 01:14:34;;;;;;;1.45;0.50;;;;;;;;;;4997649;28;20037;-78
2022/06/08 01:17:12;;;;;;;0.95;0.57;;;;;;;;;;5013899;28;20037;-78
2022/06/08 01:19:39;;;;;;;0.85;0.38;;;;;;;;;;4997532;28;20036;-78
2022/06/08 01:22:05;;;;;;;0.55;0.30;;;;;;;;;;5013767;28;20026;-78
2022/06/08 01:24:30;;;;;;;0.98;0.50;;;;;;;;;;5013744;28;20117;-78
2022/06/08 01:27:05;;;;;;;1.02;0.30;;;;;;;;;;5005580;28;20034;-77
2022/06/08 01:29:49;;;;;;;1.05;0.47;;;;;;;;;;5018372;28;20094;-77
2022/06/08 01:32:20;;;;;;;1.65;0.60;;;;;;;;;;5033656;28;20087;-77
2022/06/08 01:35:17;;;;;;;2.15;0.60;;;;;;;;;;5017237;28;20042;-77
2022/06/08 01:38:20;;;;;;;1.33;0.40;;;;;;;;;;5033161;28;20037;-78
2022/06/08 01:41:04;;;;;;;1.48;0.40;;;;;;;;;;5034672;28;20065;-78
2022/06/08 01:43:55;;;;;;;1.33;0.40;;;;;;;;;;5050145;28;20062;-78
2022/06/08 01:46:25;;;;;;;1.42;0.50;;;;;;;;;;5016614;28;20513;-77
2022/06/08 01:49:10;;;;;;;0.70;0.43;;;;;;;;;;5016861;28;20558;-78
2022/06/08 01:51:54;;;;;;;1.33;0.47;;;;;;;;;;5033596;28;20029;-77
2022/06/08 01:54:47;;;;;;;1.92;0.82;;;;;;;;;;5034163;28;20033;-78
2022/06/08 01:57:15;;;;;;;0.93;0.50;;;;;;;;;;5033236;28;20029;-77
2022/06/08 01:59:43;;;;;;;0.55;0.40;;;;;;;;;;5016531;28;20514;-78
2022/06/08 02:02:12;;;;;;;1.10;0.50;;;;;;;;;;5020520;28;20044;-77
2022/06/08 02:04:48;;;;;;;1.17;0.50;;;;;;;;;;4996855;28;20141;-77
2022/06/08 02:07:24;;;;;;;0.60;0.40;;;;;;;;;;4996810;28;20117;-78
2022/06/08 02:09:59;;;;;;;1.02;0.68;;;;;;;;;;4980052;28;20072;-78
2022/06/08 02:12:24;;;;;;;1.02;0.57;;;;;;;;;;4996708;28;20064;-78
2022/06/08 02:15:10;;;;;;;1.10;0.43;;;;;;;;;;4996641;28;20120;-78
2022/06/08 02:18:06;;;;;;;0.88;0.40;;;;;;;;;;4996310;28;20033;-78
2022/06/08 02:20:38;;;;;;;2.08;0.60;;;;;;;;;;4995439;28;20049;-77
2022/06/08 02:23:08;;;;;;;0.82;0.40;;;;;;;;;;4996708;28;20060;-78
2022/06/08 02:25:45;;;;;;;2.13;0.47;;;;;;;;;;4999815;28;20065;-77
2022/06/08 02:28:19;;;;;;;2.35;0.80;;;;;;;;;;4996919;28;20092;-77
2022/06/08 02:30:54;;;;;;;0.75;0.52;;;;;;;;;;5013490;28;20103;-78
2022/06/08 02:36:25;;;;;;;1.02;0.50;;;;;;;;;;4998986;28;20033;-77
2022/06/08 02:39:00;;;;;;;1.27;0.60;;;;;;;;;;4963934;28;20041;-77
2022/06/08 02:41:25;;;;;;;0.77;0.43;;;;;;;;;;4997057;28;20046;-78
2022/06/08 02:43:57;;;;;;;1.60;0.55;;;;;;;;;;4995993;28;20100;-78
2022/06/08 02:46:27;;;;;;;0.95;0.40;;;;;;;;;;4996175;28;20125;-77
2022/06/08 02:48:53;;;;;;;0.85;0.57;;;;;;;;;;4979834;28;20030;-78
2022/06/08 02:51:24;;;;;;;1.67;0.40;;;;;;;;;;5013581;28;20049;-77
2022/06/08 02:53:54;;;;;;;0.93;0.40;;;;;;;;;;4998986;28;20086;-77
2022/06/08 02:56:50;;;;;;;2.22;0.60;;;;;;;;;;5032081;28;20033;-78
2022/06/08 02:59:45;;;;;;;1.30;0.55;;;;;;;;;;5031738;28;20415;-78
2022/06/08 03:02:22;;;;;;;0.65;0.38;;;;;;;;;;5004942;28;20049;-78
2022/06/08 03:05:09;;;;;;;1.58;0.45;;;;;;;;;;4996466;28;20034;-77
2022/06/08 03:07:46;;;;;;;1.48;0.88;;;;;;;;;;5011544;28;20560;-78
2022/06/08 03:10:13;;;;;;;1.85;0.65;;;;;;;;;;4996924;28;20055;-77
2022/06/08 03:12:42;;;;;;;1.02;0.50;;;;;;;;;;4996311;28;20042;-77
2022/06/08 03:15:08;;;;;;;1.10;0.57;;;;;;;;;;4979556;28;20493;-77
2022/06/08 03:17:35;;;;;;;1.13;0.57;;;;;;;;;;4997345;28;20106;-77
2022/06/08 03:20:01;;;;;;;0.90;0.50;;;;;;;;;;5015104;28;20472;-77
2022/06/08 03:22:26;;;;;;;0.90;0.52;;;;;;;;;;5015133;28;20399;-78
2022/06/08 03:24:52;;;;;;;1.05;0.50;;;;;;;;;;5014818;28;20057;-78
2022/06/08 03:27:17;;;;;;;1.30;0.60;;;;;;;;;;5014803;28;20040;-77
2022/06/08 03:29:43;;;;;;;0.70;0.50;;;;;;;;;;5014848;28;20103;-78
2022/06/08 03:32:08;;;;;;;1.25;0.70;;;;;;;;;;5014763;28;20048;-77
2022/06/08 03:34:34;;;;;;;1.40;0.60;;;;;;;;;;5014703;28;20407;-77
2022/06/08 03:36:59;;;;;;;0.77;0.40;;;;;;;;;;5014527;28;20033;-77
2022/06/08 03:39:25;;;;;;;1.17;0.77;;;;;;;;;;5014568;28;20132;-77
2022/06/08 03:41:50;;;;;;;1.00;0.50;;;;;;;;;;5031140;28;20128;-78
2022/06/08 03:44:16;;;;;;;1.58;0.60;;;;;;;;;;5014824;28;20068;-77
2022/06/08 03:46:44;;;;;;;1.92;0.98;;;;;;;;;;5014599;28;20045;-77
2022/06/08 03:49:10;;;;;;;1.00;0.30;;;;;;;;;;5014130;28;20041;-78
2022/06/08 03:51:35;;;;;;;1.98;0.40;;;;;;;;;;5014393;28;20041;-78
2022/06/08 03:54:05;;;;;;;1.33;0.60;;;;;;;;;;5014242;28;20033;-78
2022/06/08 03:56:31;;;;;;;0.93;0.40;;;;;;;;;;4995206;28;20076;-78
2022/06/08 03:58:56;;;;;;;1.02;0.40;;;;;;;;;;4994758;28;20065;-78
2022/06/08 04:01:21;;;;;;;0.80;0.40;;;;;;;;;;5000545;28;20044;-77
2022/06/08 04:03:50;;;;;;;1.63;0.55;;;;;;;;;;5013924;28;20041;-77
2022/06/08 04:06:16;;;;;;;1.05;0.50;;;;;;;;;;5014570;28;20048;-77
2022/06/08 04:08:42;;;;;;;0.98;0.40;;;;;;;;;;5030417;28;20068;-78
2022/06/08 04:11:07;;;;;;;1.02;0.35;;;;;;;;;;5014345;28;20509;-78
2022/06/08 04:13:33;;;;;;;1.77;0.75;;;;;;;;;;5029930;28;20116;-77
2022/06/08 04:16:01;;;;;;;1.10;0.40;;;;;;;;;;4981429;28;20026;-78
2022/06/08 04:18:27;;;;;;;0.77;0.50;;;;;;;;;;4998396;28;20087;-78
2022/06/08 04:20:54;;;;;;;0.80;0.40;;;;;;;;;;4997732;28;20030;-78
2022/06/08 04:23:20;;;;;;;1.08;0.43;;;;;;;;;;4998173;28;20077;-77
2022/06/08 04:25:46;;;;;;;1.58;0.60;;;;;;;;;;4997069;28;20075;-77
2022/06/08 04:28:13;;;;;;;1.40;0.40;;;;;;;;;;4994113;28;20041;-78
2022/06/08 04:30:39;;;;;;;1.00;0.40;;;;;;;;;;4994614;28;20061;-77
2022/06/08 04:33:05;;;;;;;0.77;0.57;;;;;;;;;;4978061;28;20034;-78
2022/06/08 04:35:30;;;;;;;1.13;0.40;;;;;;;;;;4977910;28;20085;-77
2022/06/08 04:37:56;;;;;;;0.80;0.40;;;;;;;;;;4994201;28;20034;-78
2022/06/08 04:40:22;;;;;;;0.90;0.65;;;;;;;;;;4994281;28;20046;-77
2022/06/08 04:42:47;;;;;;;1.50;0.30;;;;;;;;;;4994393;28;20026;-78
2022/06/08 04:45:13;;;;;;;1.60;0.63;;;;;;;;;;4978299;28;20447;-78
2022/06/08 04:47:38;;;;;;;1.77;0.60;;;;;;;;;;4993509;28;20030;-79
2022/06/08 04:50:04;;;;;;;1.65;0.47;;;;;;;;;;4993027;28;20048;-78
2022/06/08 04:52:30;;;;;;;0.90;0.32;;;;;;;;;;5017676;28;20033;-78
2022/06/08 04:54:55;;;;;;;0.82;0.57;;;;;;;;;;5002035;28;20396;-78
2022/06/08 04:57:21;;;;;;;1.42;0.50;;;;;;;;;;5006541;28;20030;-79
2022/06/08 04:59:46;;;;;;;0.70;0.40;;;;;;;;;;4994800;28;20404;-78
2022/06/08 05:02:42;;;;;;;0.65;0.45;;;;;;;;;;5007154;28;20088;-77
2022/06/08 05:04:57;;;;;;;2.05;0.50;;;;;;;;;;5014894;28;20037;-78
2022/06/08 05:07:23;;;;;;;0.60;0.30;;;;;;;;;;5033306;28;20392;-77
2022/06/08 05:09:49;;;;;;;1.33;0.40;;;;;;;;;;4995175;28;20057;-77
2022/06/08 05:12:14;;;;;;;0.65;0.43;;;;;;;;;;5006899;28;20029;-78
2022/06/08 05:14:40;;;;;;;1.23;0.40;;;;;;;;;;4991953;28;20380;-78
2022/06/08 05:17:06;;;;;;;2.13;0.70;;;;;;;;;;5006230;28;20412;-77
2022/06/08 05:19:31;;;;;;;1.92;0.47;;;;;;;;;;5002799;28;20045;-77
2022/06/08 05:21:57;;;;;;;1.17;0.65;;;;;;;;;;5021413;28;20044;-78
2022/06/08 05:24:26;;;;;;;1.92;0.60;;;;;;;;;;5003063;28;20030;-78
2022/06/08 05:26:51;;;;;;;1.45;0.47;;;;;;;;;;5023452;28;20037;-77
2022/06/08 05:29:17;;;;;;;1.38;0.70;;;;;;;;;;5002521;28;20037;-77
2022/06/08 05:31:43;;;;;;;1.17;0.55;;;;;;;;;;4981099;28;20042;-77
2022/06/08 05:34:08;;;;;;;2.30;0.93;;;;;;;;;;4997585;28;20057;-77
2022/06/08 05:36:33;;;;;;;1.25;0.50;;;;;;;;;;4981415;28;20408;-78
2022/06/08 05:38:59;;;;;;;1.13;0.40;;;;;;;;;;4985687;28;20041;-79
2022/06/08 05:41:24;;;;;;;2.97;0.60;;;;;;;;;;5016500;28;20033;-78
2022/06/08 05:43:50;;;;;;;2.05;0.70;;;;;;;;;;5033041;28;20430;-80
2022/06/08 05:46:16;;;;;;;2.85;1.05;;;;;;;;;;5013004;28;20038;-79
2022/06/08 05:48:43;;;;;;;6.15;1.45;;;;;;;;;;4980862;28;20507;-79
2022/06/08 05:51:09;;;;;;;9.43;1.45;;;;;;;;;;5013749;28;20044;-79
2022/06/08 05:53:35;;;;;;;5.43;1.30;;;;;;;;;;5035836;28;20885;-80
2022/06/08 05:56:01;;;;;;;2.70;1.13;;;;;;;;;;5016815;28;20041;-80
2022/06/08 05:58:26;;;;;;;3.25;0.90;;;;;;;;;;4999802;28;20099;-79
2022/06/08 06:00:52;;;;;;;5.43;1.05;;;;;;;;;;4999639;28;20026;-79
2022/06/08 06:03:18;;;;;;;6.15;1.33;;;;;;;;;;5016517;28;20065;-80
2022/06/08 06:05:44;;;;;;;4.35;1.08;;;;;;;;;;5000605;28;20053;-79
2022/06/08 06:08:09;;;;;;;4.13;1.10;;;;;;;;;;5016250;28;20499;-79
2022/06/08 06:10:35;;;;;;;2.20;0.80;;;;;;;;;;5013578;28;20038;-80
2022/06/08 06:13:18;;;;;;;3.85;0.90;;;;;;;;;;5009505;28;20026;-81
2022/06/08 06:15:45;;;;;;;8.25;1.80;;;;;;;;;;4994679;28;20481;-80
2022/06/08 06:18:11;;;;;;;8.70;2.58;;;;;;;;;;5007595;28;20038;-80
2022/06/08 06:20:37;;;;;;;6.45;2.95;;;;;;;;;;4980587;28;20161;-80
2022/06/08 06:23:03;;;;;;;5.88;2.60;;;;;;;;;;4984768;28;20041;-80
2022/06/08 06:25:28;;;;;;;7.47;2.00;;;;;;;;;;5015922;28;20029;-79
2022/06/08 06:27:54;;;;;;;6.78;1.90;;;;;;;;;;4981596;28;20044;-79
2022/06/08 06:30:19;;;;;;;5.55;2.20;;;;;;;;;;4985084;28;20466;-79
2022/06/08 06:32:45;;;;;;;4.88;1.60;;;;;;;;;;5002597;28;20042;-79
2022/06/08 06:35:19;;;;;;;4.30;2.33;;;;;;;;;;5006344;28;20523;-78
2022/06/08 06:37:45;;;;;;;3.92;2.15;;;;;;;;;;4989277;28;20076;-80
2022/06/08 06:40:10;;;;;;;9.23;2.15;;;;;;;;;;5002547;28;20042;-79
2022/06/08 06:42:36;;;;;;;4.95;1.90;;;;;;;;;;4980460;28;20044;-80
2022/06/08 06:45:02;;;;;;;5.05;1.60;;;;;;;;;;4986905;28;20042;-80
2022/06/08 06:47:27;;;;;;;5.22;2.22;;;;;;;;;;4998214;28;20400;-80
2022/06/08 06:49:53;;;;;;;4.90;1.75;;;;;;;;;;4987813;28;20048;-80
2022/06/08 06:52:18;;;;;;;6.18;1.40;;;;;;;;;;4993576;28;20041;-79
2022/06/08 06:54:44;;;;;;;8.30;1.92;;;;;;;;;;4974401;28;20090;-79
2022/06/08 06:57:09;;;;;;;6.22;1.80;;;;;;;;;;5007095;28;20130;-79
2022/06/08 06:59:35;;;;;;;7.53;1.70;;;;;;;;;;4997174;28;20408;-79
2022/06/08 07:02:01;;;;;;;5.90;1.60;;;;;;;;;;5004662;28;20089;-79
2022/06/08 07:04:26;;;;;;;13.93;2.22;;;;;;;;;;5020496;28;20034;-79
2022/06/08 07:06:53;;;;;;;5.47;1.70;;;;;;;;;;5001960;28;20041;-79
2022/06/08 07:09:19;;;;;;;10.65;2.95;;;;;;;;;;4993526;28;20042;-80
2022/06/08 07:11:45;;;;;;;6.55;1.65;;;;;;;;;;5003634;28;20092;-80
2022/06/08 07:14:13;;;;;;;7.70;2.15;;;;;;;;;;5006711;28;20033;-81
2022/06/08 07:16:39;;;;;;;6.75;2.15;;;;;;;;;;4998515;28;20037;-81
2022/06/08 07:19:06;;;;;;;4.97;2.45;;;;;;;;;;5015073;28;20052;-80
2022/06/08 07:21:32;;;;;;;6.25;2.30;;;;;;;;;;5015502;28;20039;-80
2022/06/08 07:23:57;;;;;;;4.88;2.33;;;;;;;;;;5013512;28;20474;-79
2022/06/08 07:26:24;;;;;;;9.55;2.33;;;;;;;;;;5009627;28;20499;-80
2022/06/08 07:28:52;;;;;;;7.28;2.95;;;;;;;;;;4979284;28;20038;-80
2022/06/08 07:31:17;;;;;;;8.57;3.45;;;;;;;;;;4995601;28;20033;-79
2022/06/08 07:33:43;;;;;;;7.45;2.58;;;;;;;;;;4995373;28;20562;-80
2022/06/08 07:36:08;;;;;;;15.57;3.38;;;;;;;;;;5006637;28;20113;-79
2022/06/08 07:38:34;;;;;;;5.88;2.63;;;;;;;;;;4995053;28;20034;-80
2022/06/08 07:40:59;;;;;;;4.95;2.30;;;;;;;;;;5011607;28;20764;-79
2022/06/08 07:43:25;;;;;;;6.85;3.13;;;;;;;;;;4994642;28;20412;-80
2022/06/08 07:45:50;;;;;;;5.28;2.60;;;;;;;;;;4995031;28;20045;-80
2022/06/08 07:51:00;;;;;;;6.70;3.42;;;;;;;;;;5027856;28;20033;-80
2022/06/08 07:53:25;;;;;;;7.88;2.30;;;;;;;;;;5051028;28;20047;-79
2022/06/08 07:55:50;;;;;;;6.88;2.28;;;;;;;;;;5030446;28;20033;-79
2022/06/08 07:58:16;;;;;;;5.85;2.20;;;;;;;;;;5014204;28;20045;-79
2022/06/08 08:00:47;;;;;;;8.70;2.65;;;;;;;;;;4981048;28;20052;-80
2022/06/08 08:03:18;;;;;;;5.45;2.22;;;;;;;;;;4995610;28;20492;-80
2022/06/08 08:05:44;;;;;;;5.32;1.98;;;;;;;;;;5011141;28;20124;-79
2022/06/08 08:08:10;;;;;;;6.25;1.63;;;;;;;;;;4994588;28;20041;-80
2022/06/08 08:10:36;;;;;;;6.88;2.63;;;;;;;;;;5010770;28;20046;-80
2022/06/08 08:13:01;;;;;;;7.03;2.08;;;;;;;;;;4994848;28;20045;-79
2022/06/08 08:15:27;;;;;;;5.95;2.90;;;;;;;;;;4994648;28;20532;-80
2022/06/08 08:17:53;;;;;;;6.22;2.55;;;;;;;;;;4994447;28;20045;-80
2022/06/08 08:20:19;;;;;;;7.38;2.33;;;;;;;;;;5011342;28;20139;-80
2022/06/08 08:22:46;;;;;;;7.30;2.10;;;;;;;;;;4994690;28;20080;-80
2022/06/08 08:25:12;;;;;;;4.93;1.77;;;;;;;;;;4994729;28;20041;-80
2022/06/08 08:27:38;;;;;;;5.65;1.63;;;;;;;;;;5010068;28;20033;-80
2022/06/08 08:30:04;;;;;;;5.05;1.75;;;;;;;;;;5013952;28;20511;-80
2022/06/08 08:32:29;;;;;;;8.43;2.30;;;;;;;;;;5014070;28;20043;-79
2022/06/08 08:34:55;;;;;;;5.63;2.08;;;;;;;;;;4994266;28;20037;-80
2022/06/08 08:37:20;;;;;;;6.93;2.22;;;;;;;;;;5010731;28;20037;-80
2022/06/08 08:39:46;;;;;;;5.20;1.90;;;;;;;;;;4994206;28;20049;-80
2022/06/08 08:42:21;;;;;;;4.82;1.80;;;;;;;;;;5010650;28;20468;-80
2022/06/08 08:45:00;;;;;;;4.57;2.03;;;;;;;;;;4994815;28;20514;-80
2022/06/08 08:47:40;;;;;;;4.75;1.60;;;;;;;;;;4994691;28;20037;-80
2022/06/08 08:50:10;;;;;;;6.20;1.65;;;;;;;;;;5010091;28;20041;-80
2022/06/08 08:52:51;;;;;;;4.60;1.88;;;;;;;;;;5033807;28;20064;-80
2022/06/08 08:55:35;;;;;;;4.75;1.70;;;;;;;;;;5049841;28;20037;-81
2022/06/08 08:58:10;;;;;;;4.82;1.45;;;;;;;;;;5010300;28;20045;-80
2022/06/08 09:00:37;;;;;;;3.63;1.45;;;;;;;;;;4994786;28;20049;-80
2022/06/08 09:03:32;;;;;;;3.58;1.35;;;;;;;;;;4997226;28;20126;-80
2022/06/08 09:06:07;;;;;;;3.58;1.27;;;;;;;;;;5010390;28;20088;-80
2022/06/08 09:08:32;;;;;;;5.03;2.05;;;;;;;;;;4994230;28;20033;-80
2022/06/08 09:10:59;;;;;;;5.20;1.73;;;;;;;;;;5003393;28;20393;-81
2022/06/08 09:13:45;;;;;;;4.43;1.10;;;;;;;;;;4980567;28;20034;-81
2022/06/08 09:16:10;;;;;;;4.25;1.45;;;;;;;;;;5009433;28;20122;-80
2022/06/08 09:18:39;;;;;;;4.35;1.38;;;;;;;;;;4960255;28;20500;-80
2022/06/08 09:21:23;;;;;;;3.92;1.30;;;;;;;;;;4978416;28;20066;-81
2022/06/08 09:23:49;;;;;;;5.93;1.65;;;;;;;;;;4995728;28;20041;-81
2022/06/08 09:26:16;;;;;;;3.05;1.17;;;;;;;;;;4981885;28;20034;-81
2022/06/08 09:28:42;;;;;;;3.63;1.20;;;;;;;;;;4995037;28;20512;-81
2022/06/08 09:31:29;;;;;;;4.97;1.45;;;;;;;;;;4993863;28;20034;-81
2022/06/08 09:34:24;;;;;;;4.57;1.60;;;;;;;;;;4976400;28;20092;-84
2022/06/08 09:37:11;;;;;;;12.50;2.10;;;;;;;;;;4994201;28;20143;-94
2022/06/08 09:39:41;;;;;;;26.85;3.97;;;;;;;;;;5010056;28;20087;-93
2022/06/08 09:42:17;;;;;;;12.52;2.70;;;;;;;;;;4998434;28;20057;-88
2022/06/08 09:44:49;;;;;;;11.48;2.05;;;;;;;;;;4964678;28;20415;-88
2022/06/08 09:53:44;;;;;;;9.95;2.42;;;;;;;;;;5006360;28;20033;-82
2022/06/08 09:56:31;;;;;;;8.07;2.70;;;;;;;;;;5017614;28;20496;-87
2022/06/08 09:59:14;;;;;;;8.50;2.05;;;;;;;;;;5018304;28;20041;-84
2022/06/08 10:02:07;;;;;;;8.00;2.40;;;;;;;;;;5034300;28;20037;-92
2022/06/08 10:04:55;;;;;;;;;;;;;;;;;;5019685;28;20060;-90
2022/06/08 10:07:32;;;;;;;8.75;2.30;;;;;;;;;;5050703;28;20000;-91
2022/06/08 10:10:26;;;;;;;10.32;2.42;;;;;;;;;;5018177;28;20515;-91
2022/06/08 10:13:12;;;;;;;12.70;2.60;;;;;;;;;;5018096;28;20037;-91
2022/06/08 10:15:50;;;;;;;8.25;2.97;;;;;;;;;;5002632;28;20092;-91
2022/06/08 10:18:44;;;;;;;13.35;2.80;;;;;;;;;;5001005;28;20132;-91
2022/06/08 10:21:14;;;;;;;16.25;4.15;;;;;;;;;;5003403;28;20045;-93
2022/06/08 10:23:45;;;;;;;12.45;3.72;;;;;;;;;;4988090;28;20436;-93
2022/06/08 10:26:35;;;;;;;11.57;3.90;;;;;;;;;;4984903;28;20041;-92
2022/06/08 10:29:09;;;;;;;11.02;2.70;;;;;;;;;;5034540;28;21095;-92
2022/06/08 10:31:41;;;;;;;14.23;2.80;;;;;;;;;;5018662;28;20029;-92
2022/06/08 10:34:33;;;;;;;12.57;2.92;;;;;;;;;;5017500;28;20029;-92
2022/06/08 10:37:05;;;;;;;8.50;2.35;;;;;;;;;;4982137;28;20049;-91
2022/06/08 10:39:33;;;;;;;;;;;;;;;;;;5030801;28;20038;-93
2022/06/08 10:42:39;;;;;;;11.45;2.90;;;;;;;;;;5030619;28;20012;-92
2022/06/08 10:45:33;;;;;;;12.00;2.55;;;;;;;;;;5014539;28;20144;-91
2022/06/08 10:48:11;;;;;;;12.35;2.95;;;;;;;;;;5031470;28;20041;-92
2022/06/08 10:50:39;;;;;;;10.35;2.80;;;;;;;;;;5030445;28;20038;-90
2022/06/08 10:56:24;;;;;;;17.83;2.53;;;;;;;;;;5020149;28;20108;-83
2022/06/08 10:59:14;;;;;;;16.58;2.78;;;;;;;;;;5016482;28;20384;-87
2022/06/08 11:01:49;;;;;;;12.48;2.45;;;;;;;;;;4986839;28;20037;-89
2022/06/08 11:04:32;;;;;;;9.27;2.47;;;;;;;;;;5019762;28;20112;-90
2022/06/08 11:07:07;;;;;;;7.75;2.05;;;;;;;;;;5007503;28;20124;-88
2022/06/08 11:09:35;;;;;;;13.40;2.08;;;;;;;;;;5000611;28;20041;-89
2022/06/08 11:12:13;;;;;;;8.35;2.20;;;;;;;;;;5017142;28;20128;-90
2022/06/08 11:14:52;;;;;;;9.98;2.28;;;;;;;;;;5016539;28;20132;-90
2022/06/08 11:17:41;;;;;;;12.77;2.72;;;;;;;;;;5017086;28;20038;-90
2022/06/08 11:20:27;;;;;;;6.70;1.80;;;;;;;;;;4984388;28;20500;-89
2022/06/08 11:23:19;;;;;;;10.75;1.92;;;;;;;;;;4999943;28;20037;-90
2022/06/08 11:25:52;;;;;;;8.57;2.83;;;;;;;;;;5018850;28;20045;-91
2022/06/08 11:28:44;;;;;;;6.15;1.65;;;;;;;;;;5000900;28;20060;-90
2022/06/08 11:31:26;;;;;;;5.55;1.70;;;;;;;;;;5000604;28;20037;-91
2022/06/08 11:34:18;;;;;;;7.90;2.42;;;;;;;;;;5016302;28;20074;-91
2022/06/08 11:36:55;;;;;;;5.53;1.65;;;;;;;;;;5024623;28;20491;-89
2022/06/08 11:39:29;;;;;;;5.03;1.08;;;;;;;;;;5015987;28;20065;-90
2022/06/08 11:42:22;;;;;;;5.80;1.80;;;;;;;;;;4999900;28;20034;-90
2022/06/08 11:45:08;;;;;;;3.97;1.08;;;;;;;;;;5015584;28;20048;-90
2022/06/08 11:47:43;;;;;;;6.43;1.90;;;;;;;;;;4998017;28;20029;-90
2022/06/08 11:50:42;;;;;;;5.07;1.63;;;;;;;;;;5014923;28;20172;-91
2022/06/08 11:53:17;;;;;;;3.47;1.40;;;;;;;;;;5026540;28;20045;-91
2022/06/08 11:56:12;;;;;;;6.40;1.60;;;;;;;;;;5012801;28;20030;-91
2022/06/08 11:58:46;;;;;;;4.32;1.40;;;;;;;;;;4998641;28;20565;-93
2022/06/08 12:01:27;;;;;;;5.55;1.33;;;;;;;;;;4986389;28;20140;-90
2022/06/08 12:04:00;;;;;;;4.35;1.52;;;;;;;;;;4980810;28;20073;-90
2022/06/08 12:06:29;;;;;;;4.57;1.42;;;;;;;;;;4997170;28;20057;-90
2022/06/08 12:09:05;;;;;;;4.82;1.38;;;;;;;;;;4995897;28;20080;-91
2022/06/08 12:11:34;;;;;;;5.65;1.60;;;;;;;;;;4997373;28;20025;-91
2022/06/08 12:14:02;;;;;;;4.88;1.45;;;;;;;;;;4991784;28;20041;-90
2022/06/08 12:16:37;;;;;;;4.30;1.15;;;;;;;;;;5004962;28;20038;-91
2022/06/08 12:19:11;;;;;;;3.65;1.25;;;;;;;;;;4998332;28;20034;-92
2022/06/08 12:21:41;;;;;;;4.88;0.90;;;;;;;;;;5037581;28;20116;-91
2022/06/08 12:24:13;;;;;;;7.05;1.38;;;;;;;;;;5006516;28;20033;-92
2022/06/08 12:26:50;;;;;;;3.38;0.98;;;;;;;;;;4998965;28;20034;-92
2022/06/08 12:29:47;;;;;;;4.68;1.30;;;;;;;;;;4999963;28;20045;-91
2022/06/08 12:32:22;;;;;;;3.10;1.08;;;;;;;;;;5014252;28;20087;-90
2022/06/08 12:35:38;;;;;;;4.57;1.23;;;;;;;;;;4983756;28;20045;-90
2022/06/08 12:38:11;;;;;;;4.78;1.20;;;;;;;;;;5010985;28;20123;-89
2022/06/08 12:40:37;;;;;;;5.30;2.03;;;;;;;;;;5015399;28;20033;-89
2022/06/08 12:43:10;;;;;;;6.22;1.63;;;;;;;;;;4998779;28;20518;-89
2022/06/08 12:45:38;;;;;;;4.88;1.52;;;;;;;;;;5015105;28;20033;-90
2022/06/08 12:48:32;;;;;;;3.72;1.33;;;;;;;;;;4998474;28;20036;-89
2022/06/08 12:50:57;;;;;;;5.20;1.60;;;;;;;;;;5029935;28;20040;-89
2022/06/08 12:53:26;;;;;;;4.28;1.23;;;;;;;;;;5011399;28;20116;-89
2022/06/08 12:55:53;;;;;;;8.48;1.77;;;;;;;;;;4979804;28;20507;-87
2022/06/08 12:58:23;;;;;;;5.70;1.60;;;;;;;;;;4995558;28;20038;-90
2022/06/08 13:00:53;;;;;;;8.63;1.83;;;;;;;;;;4979440;28;20045;-90
2022/06/08 13:03:23;;;;;;;8.52;2.20;;;;;;;;;;4995816;28;20484;-91
2022/06/08 13:05:52;;;;;;;15.50;1.95;;;;;;;;;;4979644;28;20030;-89
2022/06/08 13:08:20;;;;;;;9.85;2.17;;;;;;;;;;4978708;28;20526;-89
2022/06/08 13:10:50;;;;;;;5.82;1.45;;;;;;;;;;4992189;28;20125;-89
2022/06/08 13:13:22;;;;;;;6.35;2.03;;;;;;;;;;4999909;28;20077;-89
2022/06/08 13:15:51;;;;;;;7.95;1.80;;;;;;;;;;4998837;28;20115;-90
2022/06/08 13:18:24;;;;;;;6.35;1.77;;;;;;;;;;4998970;28;20037;-90
2022/06/08 13:20:53;;;;;;;11.75;2.30;;;;;;;;;;5016451;28;20064;-89
2022/06/08 13:23:21;;;;;;;9.48;1.38;;;;;;;;;;5002661;28;20040;-89
2022/06/08 13:25:51;;;;;;;7.30;1.10;;;;;;;;;;5002235;28;20527;-90
2022/06/08 13:28:29;;;;;;;6.82;1.25;;;;;;;;;;4985799;28;20037;-91
2022/06/08 13:30:55;;;;;;;5.45;1.95;;;;;;;;;;5002403;28;20029;-90
2022/06/08 13:36:23;;;;;;;6.85;1.48;;;;;;;;;;5021029;28;20132;-89
2022/06/08 13:39:06;;;;;;;4.40;1.50;;;;;;;;;;5034976;28;20044;-88
2022/06/08 13:41:32;;;;;;;3.55;1.15;;;;;;;;;;5020232;28;20046;-88
2022/06/08 13:44:01;;;;;;;2.83;0.95;;;;;;;;;;5001669;28;20026;-88
2022/06/08 13:46:36;;;;;;;3.20;0.82;;;;;;;;;;5017970;28;20037;-87
2022/06/08 13:49:03;;;;;;;6.85;1.38;;;;;;;;;;5001886;28;20030;-88
2022/06/08 13:51:29;;;;;;;3.90;1.10;;;;;;;;;;5001427;28;20087;-88
2022/06/08 13:53:56;;;;;;;3.03;0.75;;;;;;;;;;5017755;28;20030;-89
2022/06/08 13:56:23;;;;;;;3.72;0.70;;;;;;;;;;5001833;28;20044;-89
2022/06/08 13:58:50;;;;;;;4.10;0.85;;;;;;;;;;5017722;28;20035;-89
2022/06/08 14:01:24;;;;;;;2.83;0.77;;;;;;;;;;5001991;28;20056;-89
2022/06/08 14:03:50;;;;;;;5.70;1.35;;;;;;;;;;5001632;28;20071;-90
2022/06/08 14:14:36;;;;;;;6.57;0.90;;;;;;;;;;5000701;28;20088;-90
2022/06/08 14:17:04;;;;;;;3.28;1.00;;;;;;;;;;4998113;28;20049;-91
2022/06/08 14:19:38;;;;;;;3.17;1.27;;;;;;;;;;4998382;28;20030;-90
2022/06/08 14:22:06;;;;;;;7.45;1.02;;;;;;;;;;4999287;28;20045;-90
2022/06/08 14:24:37;;;;;;;7.57;1.42;;;;;;;;;;4998218;28;20492;-90
2022/06/08 14:27:03;;;;;;;5.32;1.45;;;;;;;;;;4998222;28;20080;-90
2022/06/08 14:29:29;;;;;;;8.20;1.80;;;;;;;;;;4997913;28;20030;-91
2022/06/08 14:31:58;;;;;;;6.97;0.93;;;;;;;;;;4998508;28;20037;-90
2022/06/08 14:34:29;;;;;;;5.63;1.05;;;;;;;;;;4981842;28;20030;-91
2022/06/08 14:36:58;;;;;;;5.22;1.55;;;;;;;;;;5013825;28;20042;-90
2022/06/08 14:39:31;;;;;;;3.85;0.75;;;;;;;;;;5001144;28;20033;-93
2022/06/08 14:41:58;;;;;;;3.95;0.80;;;;;;;;;;4985833;28;20057;-92
2022/06/08 14:44:27;;;;;;;5.28;0.70;;;;;;;;;;5000971;28;20116;-90
2022/06/08 14:46:57;;;;;;;3.92;0.85;;;;;;;;;;4984701;28;20073;-90
2022/06/08 14:49:27;;;;;;;3.85;0.90;;;;;;;;;;4999291;28;20037;-91
2022/06/08 14:51:56;;;;;;;4.18;1.15;;;;;;;;;;4965018;28;20053;-91
2022/06/08 14:54:24;;;;;;;2.28;1.15;;;;;;;;;;4981347;28;20049;-91
2022/06/08 14:56:58;;;;;;;1.75;0.50;;;;;;;;;;4981262;28;20038;-91
2022/06/08 14:59:25;;;;;;;3.38;0.63;;;;;;;;;;4981480;28;20026;-90
2022/06/08 15:01:51;;;;;;;4.35;0.70;;;;;;;;;;4990680;28;20488;-90
2022/06/08 15:04:19;;;;;;;4.10;0.80;;;;;;;;;;4999981;28;20033;-90
2022/06/08 15:06:45;;;;;;;3.70;0.80;;;;;;;;;;5033147;28;20116;-89
2022/06/08 15:09:11;;;;;;;3.15;0.80;;;;;;;;;;4999743;28;20499;-89
2022/06/08 15:14:44;;;;;;;5.82;0.98;;;;;;;;;;5018566;28;20025;-89
2022/06/08 15:17:17;;;;;;;3.88;0.90;;;;;;;;;;5033154;28;20045;-89
2022/06/08 15:19:46;;;;;;;3.38;0.60;;;;;;;;;;5003211;28;20037;-90
2022/06/08 15:22:12;;;;;;;2.13;0.70;;;;;;;;;;4987310;28;20067;-89
2022/06/08 15:24:38;;;;;;;2.90;0.95;;;;;;;;;;5007119;28;20068;-89
2022/06/08 15:27:24;;;;;;;3.67;0.98;;;;;;;;;;5006490;28;20040;-89
2022/06/08 15:29:49;;;;;;;3.65;0.63;;;;;;;;;;5005159;28;20037;-90
2022/06/08 15:32:20;;;;;;;2.50;0.90;;;;;;;;;;5000991;28;20049;-89
2022/06/08 15:34:46;;;;;;;1.50;0.70;;;;;;;;;;5000454;28;20442;-89
2022/06/08 15:37:17;;;;;;;2.53;0.75;;;;;;;;;;4997667;28;20125;-90